Latest Weather Observations for Thargomindah

IDQ60801

Issued at 11:02 am EST Thursday 21 November 2019 (issued every 10 minutes, with the page automatically refreshed every 10 minutes)

About weather observations | Map of weather stations | Latest weather observations for QLD | Other Formats
Station Details ID: 045025 Name: THARGOMINDAH AIRPORT Lat: -27.99 Lon: 143.81 Height: 130.89 m
Data from the previous 72 hours. | See also: Recent months at Thargomindah
Date/Time
EST
Temp
°C
App
Temp
°C
Dew
Point
°C
Rel
Hum
%
Delta-T
°C
Wind Press
QNH
hPa
Press
MSL
hPa
Rain since
9am
mm
Dir  Spd
km/h
Gust
km/h
Spd
kts
Gust
kts
21/11:00am 40.8 34.7 4.6 11 20.0 N 26 39 14 21 1008.7 1008.0 0.0
21/10:30am 40.6 34.7 5.7 12 19.5 N 26 33 14 18 1009.0 1008.3 0.0
21/10:00am 39.7 34.8 5.0 12 19.1 NNW 20 32 11 17 1009.3 1008.6 0.0
21/09:30am 38.3 33.7 3.9 12 18.5 N 17 28 9 15 1009.5 1008.8 0.0
21/09:00am 36.3 31.6 1.2 11 17.9 NNE 15 20 8 11 1009.6 1008.9 0.0
21/08:30am 35.3 30.1 0.4 11 17.5 NNE 17 20 9 11 1009.7 1009.0 0.0
21/08:00am 34.0 28.5 -1.9 10 17.2 NNE 17 20 9 11 1009.7 1009.0 0.0
21/07:30am 32.4 27.7 -1.8 11 16.2 NE 13 17 7 9 1009.6 1008.9 0.0
21/07:00am 30.4 25.0 -1.1 13 14.9 NE 17 22 9 12 1009.3 1008.6 0.0
21/06:30am 27.7 22.9 -2.2 14 13.6 E 13 19 7 10 1008.8 1008.1 0.0
21/06:00am 25.9 21.1 -2.7 15 12.7 E 13 13 7 7 1008.6 1007.9 0.0
21/05:30am 26.2 21.3 -3.4 14 13.0 ENE 13 15 7 8 1008.4 1007.7 0.0
21/05:00am 26.1 21.7 -2.5 15 12.8 ENE 11 13 6 7 1008.3 1007.6 0.0
21/04:30am 26.3 21.5 -2.4 15 12.8 NE 13 15 7 8 1008.0 1007.2 0.0
21/04:00am 25.8 21.4 -2.8 15 12.7 NNE 11 13 6 7 1007.7 1006.9 0.0
21/03:30am 25.6 21.8 -3.8 14 12.7 N 7 9 4 5 1007.6 1006.8 0.0
21/03:00am 26.5 22.4 -3.1 14 13.1 N 9 13 5 7 1007.4 1006.6 0.0
21/02:30am 27.9 23.4 -3.0 13 13.9 E 11 15 6 8 1007.4 1006.6 0.0
21/02:00am 27.3 23.3 -2.5 14 13.5 ESE 9 15 5 8 1007.6 1006.8 0.0
21/01:30am 28.5 24.5 -2.6 13 14.1 NE 9 11 5 6 1007.7 1006.9 0.0
21/01:00am 29.1 25.1 -2.1 13 14.4 NE 9 11 5 6 1008.0 1007.2 0.0
21/12:30am 30.0 26.0 -2.5 12 14.9 NE 9 13 5 7 1008.3 1007.6 0.0
21/12:00am 30.6 26.6 -2.0 12 15.2 NNE 9 13 5 7 1008.5 1007.8 0.0
 
Date/Time
EST
Temp
°C
App
Temp
°C
Dew
Point
°C
Rel
Hum
%
Delta-T
°C
Wind Press
QNH
hPa
Press
MSL
hPa
Rain since
9am
mm
Dir  Spd
km/h
Gust
km/h
Spd
kts
Gust
kts
20/11:30pm 30.4 26.3 -3.3 11 15.3 N 9 13 5 7 1008.7 1008.0 0.0
20/11:00pm 30.9 26.0 -3.0 11 15.6 N 13 15 7 8 1008.7 1008.0 0.0
20/10:30pm 31.7 27.7 -2.3 11 15.9 E 9 11 5 6 1008.7 1008.0 0.0
20/10:00pm 32.8 28.7 -2.8 10 16.7 E 9 11 5 6 1008.5 1007.8 0.0
20/09:30pm 33.5 29.1 -2.3 10 16.9 E 11 13 6 7 1008.3 1007.6 0.0
20/09:00pm 34.1 29.8 -1.8 10 17.2 ESE 11 11 6 6 1008.2 1007.5 0.0
20/08:30pm 35.0 31.0 -2.6 9 17.9 E 9 11 5 6 1008.0 1007.2 0.0
20/08:00pm 36.1 31.8 -1.7 9 18.4 ENE 11 13 6 7 1007.9 1007.1 0.0
20/07:30pm 37.0 32.9 -2.7 8 19.1 ENE 9 11 5 6 1007.8 1007.0 0.0
20/07:00pm 38.5 33.6 -3.4 7 20.2 ENE 13 17 7 9 1007.7 1006.9 0.0
20/06:30pm 39.9 35.4 -0.5 8 20.5 E 13 20 7 11 1007.4 1006.6 0.0
20/06:00pm 40.7 36.0 -1.8 7 21.3 NE 13 17 7 9 1007.1 1006.3 0.0
20/05:30pm 40.7 36.0 -1.8 7 21.3 NNE 13 20 7 11 1007.0 1006.2 0.0
20/05:00pm 41.2 35.5 -3.5 6 21.9 E 17 30 9 16 1006.9 1006.1 0.0
20/04:30pm 41.8 35.9 -1.0 7 21.8 E 20 30 11 16 1007.0 1006.2 0.0
20/04:00pm 42.3 36.6 -0.6 7 22.1 NE 19 35 10 19 1007.1 1006.3 0.0
20/03:30pm 41.2 35.4 -1.4 7 21.5 E 19 33 10 18 1007.5 1006.7 0.0
20/03:00pm 41.9 34.5 -0.9 7 21.9 E 28 39 15 21 1007.9 1007.1 0.0
20/02:30pm 42.0 35.3 -0.9 7 21.9 ESE 24 35 13 19 1008.2 1007.5 0.0
20/02:00pm 40.5 35.0 -1.9 7 21.2 E 17 32 9 17 1008.7 1008.0 0.0
20/01:30pm 42.1 36.2 -0.8 7 22.0 E 20 44 11 24 1009.0 1008.3 0.0
20/01:00pm 41.0 34.2 -1.6 7 21.4 E 24 37 13 20 1009.7 1009.0 0.0
20/12:30pm 39.9 34.0 -0.5 8 20.5 ENE 20 35 11 19 1010.4 1009.6 0.0
20/12:00pm 40.3 34.4 -2.1 7 21.1 ESE 19 32 10 17 1010.9 1010.1 0.0
20/11:30am 39.4 33.8 -2.7 7 20.6 E 17 30 9 16 1011.3 1010.5 0.0
20/11:00am 39.1 33.5 -2.9 7 20.5 ENE 17 32 9 17 1011.7 1010.9 0.0
20/10:30am 39.3 33.9 -1.0 8 20.2 E 17 26 9 14 1012.0 1011.2 0.0
20/10:00am 38.4 32.6 -1.6 8 19.8 ENE 19 28 10 15 1012.2 1011.4 0.0
20/09:30am 37.5 32.4 -2.3 8 19.4 E 15 20 8 11 1012.5 1011.7 0.0
20/09:00am 36.3 31.6 -1.6 9 18.5 ENE 13 19 7 10 1012.7 1011.9 0.0
20/08:30am 34.5 30.0 -2.9 9 17.7 ENE 11 13 6 7 1012.8 1012.0 0.0
20/08:00am 32.9 28.8 -2.7 10 16.7 ENE 9 13 5 7 1012.8 1012.0 0.0
20/07:30am 29.9 26.2 -2.6 12 14.9 ENE 7 11 4 6 1012.8 1012.0 0.0
20/07:00am 27.4 23.8 -3.4 13 13.7 ESE 6 6 3 3 1012.6 1011.8 0.0
20/06:30am 25.0 22.7 -2.5 16 12.2 CALM 0 0 0 0 1012.3 1011.5 0.0
20/06:00am 22.5 20.3 -1.6 20 10.6 CALM 0 0 0 0 1012.1 1011.3 0.0
20/05:30am 21.3 19.1 -1.3 22 9.9 CALM 0 0 0 0 1011.9 1011.1 0.0
20/05:00am 21.3 19.4 0.5 25 9.4 CALM 0 0 0 0 1011.7 1010.9 0.0
20/04:30am 21.5 19.4 -0.5 23 9.8 CALM 0 0 0 0 1011.5 1010.7 0.0
20/04:00am 22.6 20.6 -0.2 22 10.3 CALM 0 0 0 0 1011.3 1010.5 0.0
20/03:30am 22.4 20.1 -2.3 19 10.7 CALM 0 0 0 0 1011.2 1010.4 0.0
20/03:00am 22.7 19.2 -2.8 18 11.0 NE 6 7 3 4 1011.2 1010.4 0.0
20/02:30am 22.5 18.8 -3.0 18 10.9 NE 7 7 4 4 1011.2 1010.4 0.0
20/02:00am 22.9 19.4 -1.2 20 10.7 NE 7 9 4 5 1011.4 1010.6 0.0
20/01:30am 23.8 20.0 -3.5 16 11.7 ENE 7 9 4 5 1011.6 1010.8 0.0
20/01:00am 25.4 21.2 -4.0 14 12.7 ENE 9 9 5 5 1011.9 1011.1 0.0
20/12:30am 25.7 21.6 -2.8 15 12.6 E 9 11 5 6 1012.2 1011.4 0.0
20/12:00am 26.0 21.8 -3.5 14 12.9 E 9 9 5 5 1012.6 1011.8 0.0
 
Date/Time
EST
Temp
°C
App
Temp
°C
Dew
Point
°C
Rel
Hum
%
Delta-T
°C
Wind Press
QNH
hPa
Press
MSL
hPa
Rain since
9am
mm
Dir  Spd
km/h
Gust
km/h
Spd
kts
Gust
kts
19/11:30pm 26.3 22.1 -4.3 13 13.2 E 9 9 5 5 1012.7 1011.9 0.0
19/11:00pm 28.5 24.3 -3.6 12 14.3 ESE 9 11 5 6 1012.8 1012.0 0.0
19/10:30pm 28.2 24.4 -3.9 12 14.2 ESE 7 9 4 5 1012.8 1012.0 0.0
19/10:00pm 29.3 25.5 -0.9 14 14.2 SE 9 11 5 6 1012.8 1012.0 0.0
19/09:30pm 29.8 25.6 -3.8 11 15.1 ESE 9 9 5 5 1012.7 1011.9 0.0
19/09:00pm 30.7 27.1 -1.9 12 15.2 ESE 7 9 4 5 1012.5 1011.7 0.0
19/08:30pm 31.5 27.7 -3.8 10 16.1 ESE 7 9 4 5 1012.2 1011.4 0.0
19/08:00pm 32.9 29.1 -4.1 9 16.9 ESE 7 9 4 5 1011.9 1011.1 0.0
19/07:30pm 33.9 30.0 -4.9 8 17.6 ESE 7 9 4 5 1011.8 1011.0 0.0
19/07:00pm 35.6 31.4 -3.7 8 18.5 ESE 9 15 5 8 1011.5 1010.7 0.0
19/06:30pm 36.9 32.3 -4.5 7 19.4 SE 11 17 6 9 1011.1 1010.3 0.0
19/06:00pm 37.5 32.5 -4.1 7 19.7 ESE 13 19 7 10 1010.7 1009.9 0.0
19/05:30pm 37.5 32.5 -4.1 7 19.7 ESE 13 19 7 10 1010.5 1009.7 0.0
19/05:00pm 37.8 33.6 -3.9 7 19.8 E 9 17 5 9 1010.3 1009.5 0.0
19/04:30pm 38.1 32.8 -3.7 7 20.0 SSE 15 26 8 14 1010.3 1009.5 0.0
19/04:00pm 37.9 31.8 -3.8 7 19.9 SSE 19 26 10 14 1010.4 1009.6 0.0
19/03:30pm 37.8 32.8 -3.9 7 19.8 ESE 13 24 7 13 1010.7 1009.9 0.0
19/03:00pm 37.4 31.6 -4.2 7 19.6 SSE 17 30 9 16 1011.0 1010.2 0.0
19/02:30pm 37.2 31.1 -4.3 7 19.5 ESE 19 30 10 16 1011.5 1010.7 0.0
19/02:00pm 36.5 30.7 -4.8 7 19.2 ESE 17 30 9 16 1011.9 1011.1 0.0
19/01:30pm 36.4 31.0 -4.9 7 19.1 E 15 28 8 15 1012.4 1011.6 0.0
19/01:00pm 36.0 31.7 -5.2 7 18.9 ESE 9 20 5 11 1012.7 1011.9 0.0
19/12:30pm 35.6 30.5 -5.5 7 18.8 SE 13 26 7 14 1013.3 1012.5 0.0
19/12:00pm 35.1 29.2 -5.8 7 18.5 ENE 17 35 9 19 1013.6 1012.8 0.0
19/11:30am 34.4 29.0 -4.6 8 17.9 ESE 15 26 8 14 1014.0 1013.2 0.0
19/11:00am 33.8 28.0 -5.0 8 17.6 E 17 24 9 13 1014.3 1013.5 0.0
19/10:30am 33.1 28.1 -4.0 9 17.0 ENE 13 20 7 11 1014.6 1013.8 0.0
19/10:00am 32.6 27.6 -4.3 9 16.8 E 13 33 7 18 1015.1 1014.4 0.0
19/09:30am 31.7 25.9 -5.0 9 16.4 ENE 17 24 9 13 1015.4 1014.7 0.0
19/09:00am 31.1 25.0 -4.1 10 15.9 ENE 19 24 10 13 1015.5 1014.8 0.0
19/08:30am 29.9 24.1 -5.0 10 15.4 ENE 17 20 9 11 1015.6 1014.9 0.0
19/08:00am 28.8 23.8 -4.6 11 14.6 ENE 13 19 7 10 1015.5 1014.8 0.0
19/07:30am 26.6 21.6 -4.0 13 13.3 E 13 17 7 9 1015.4 1014.7 0.0
19/07:00am 24.0 20.1 -4.2 15 12.0 ESE 7 11 4 6 1015.2 1014.5 0.0
19/06:30am 21.2 18.5 -5.6 16 10.8 CALM 0 0 0 0 1014.9 1014.2 0.0
19/06:00am 19.3 16.5 -7.1 16 10.1 CALM 0 0 0 0 1014.7 1013.9 0.0
19/05:30am 18.1 15.5 -5.2 20 9.1 CALM 0 0 0 0 1014.5 1013.7 0.0
19/05:00am 20.1 15.9 -4.2 19 9.9 SE 9 11 5 6 1014.3 1013.5 0.0
19/04:30am 20.3 16.0 -4.8 18 10.2 SE 9 11 5 6 1014.0 1013.2 0.0
19/04:00am 20.3 16.0 -4.8 18 10.2 SE 9 9 5 5 1013.8 1013.0 0.0
19/03:30am 21.1 16.3 -5.7 16 10.7 SSE 11 11 6 6 1013.7 1012.9 0.0
19/03:00am 20.9 16.1 -5.8 16 10.7 SSE 11 13 6 7 1013.6 1012.8 0.0
19/02:30am 21.1 16.7 -5.7 16 10.7 ESE 9 11 5 6 1013.7 1012.9 0.0
19/02:00am 22.1 17.7 -5.7 15 11.3 SE 9 11 5 6 1013.7 1012.9 0.0
19/01:30am 22.2 17.9 -4.8 16 11.1 SE 9 9 5 5 1013.8 1013.0 0.0
19/01:00am 21.7 17.7 -6.0 15 11.1 SE 7 7 4 4 1013.9 1013.1 0.0
19/12:30am 23.0 18.6 -5.9 14 11.8 SSE 9 9 5 5 1014.3 1013.5 0.0
19/12:00am 23.3 18.9 -5.7 14 11.9 SSE 9 9 5 5 1014.5 1013.7 0.0
 
Date/Time
EST
Temp
°C
App
Temp
°C
Dew
Point
°C
Rel
Hum
%
Delta-T
°C
Wind Press
QNH
hPa
Press
MSL
hPa
Rain since
9am
mm
Dir  Spd
km/h
Gust
km/h
Spd
kts
Gust
kts
18/11:30pm 24.6 19.8 -5.6 13 12.5 SSE 11 13 6 7 1014.6 1013.8 0.0
18/11:00pm 25.2 20.5 -5.1 13 12.8 SE 11 11 6 6 1014.9 1014.2 0.0
18/10:30pm 25.9 21.2 -4.6 13 13.1 SE 11 11 6 6 1014.9 1014.2 0.0
18/10:00pm 25.3 21.0 -5.1 13 12.8 SE 9 9 5 5 1014.8 1014.0 0.0
18/09:30pm 27.2 22.9 -4.6 12 13.8 SE 9 9 5 5 1014.9 1014.2 0.0
18/09:00pm 27.9 23.7 -4.1 12 14.1 SE 9 9 5 5 1014.7 1013.9 0.0
18/08:30pm 28.5 24.3 -3.6 12 14.3 SE 9 11 5 6 1014.5 1013.7 0.0
18/08:00pm 29.3 25.3 -5.4 10 15.1 ESE 7 9 4 5 1014.5 1013.7 0.0
18/07:30pm 30.2 25.8 -6.1 9 15.7 ESE 9 11 5 6 1014.4 1013.6 0.0
18/07:00pm 31.2 26.8 -5.4 9 16.2 SE 9 13 5 7 1014.2 1013.4 0.0
18/06:30pm 32.2 26.6 -6.2 8 16.9 SE 15 19 8 10 1013.9 1013.1 0.0
18/06:00pm 32.8 26.9 -5.7 8 17.1 SE 17 22 9 12 1013.7 1012.9 0.0
18/05:30pm 32.7 27.9 -5.8 8 17.1 SSE 11 17 6 9 1013.7 1012.9 0.0
18/05:00pm 33.2 27.5 -7.2 7 17.6 S 15 28 8 15 1013.8 1013.0 0.0
18/04:30pm 33.3 27.6 -7.1 7 17.6 SSE 15 22 8 12 1013.8 1013.0 0.0
18/04:00pm 33.5 29.0 -7.0 7 17.7 SSE 9 19 5 10 1013.9 1013.1 0.0
18/03:30pm 33.7 29.2 -6.8 7 17.8 S 9 26 5 14 1014.2 1013.4 0.0
18/03:00pm 32.5 26.8 -7.7 7 17.3 S 15 28 8 15 1014.5 1013.7 0.0
18/02:30pm 32.0 25.9 -8.1 7 17.0 SE 17 30 9 16 1014.9 1014.2 0.0
18/02:00pm 32.1 26.4 -8.0 7 17.1 SSE 15 26 8 14 1015.2 1014.5 0.0
18/01:30pm 31.8 27.3 -6.5 8 16.7 SE 9 20 5 11 1015.7 1015.0 0.0
18/01:00pm 31.6 26.0 -6.6 8 16.6 SSE 15 24 8 13 1016.2 1015.5 0.0
18/12:30pm 30.8 26.3 -7.2 8 16.2 SE 9 20 5 11 1016.6 1015.9 0.0
18/12:00pm 29.5 23.7 -8.2 8 15.6 SE 15 24 8 13 1016.9 1016.2 0.0
18/11:30am 29.0 24.5 -7.0 9 15.2 ESE 9 15 5 8 1017.3 1016.6 0.0

Other formats

Comma delimited format used in spreadsheet applications
http://www.bom.gov.au/fwo/IDQ60801/IDQ60801.95492.axf

JavaScript Object Notation format (JSON) in row-major order
http://www.bom.gov.au/fwo/IDQ60801/IDQ60801.95492.json

Data quality

Most of these data are generated automatically and are frequently updated. Quality checks on data are not normally performed. It is possible for incorrect values to appear. Refer to information at About Latest Weather Observations and please check the disclaimer before using these data.